• Join FlightAware (Why Join?)
  • Login
  • US Flag 
10:24AM EDT


 

Airport Tracker/Info


-or-


 

Live Flight TrackerFlight Track Log ✈ N508QS ✈ 12-Jun-2013 ✈ EFTP / TMP - KLAX

Flight Track Log - Related Links

Times and Time Zones

All times are in EDT time to prevent confusion due to time zone crossing. See the N508QS flight status page for this flight to view local times or setup timezone preferences in your user account.

Time Position Orientation Groundspeed Altitude Reporting Facility
EDT Latitude Longitude Course Direction KTS MPH feet Rate Location/Type
04:05AM 70.8190 -80.8885 329° Northwest  Level Estimated
04:05AM 72.6500 -67.7000 259° West 489 563 43,000  Level ETMS Enhanced Traffic Management System
04:06AM 70.7359 -81.1782 229° Southwest  Level Estimated
04:07AM 70.6524 -81.4654 229° Southwest  Level Estimated
04:08AM 70.5684 -81.7503 229° Southwest  Level Estimated
04:09AM 70.4840 -82.0328 228° Southwest  Level Estimated
04:10AM 70.3991 -82.3129 228° Southwest  Level Estimated
04:11AM 72.2303 -73.4017 254° West 489 563 43,000  Level FlightAware Transoceanic
04:12AM 72.1913 -73.8287 253° West 489 563 43,000  Level FlightAware Transoceanic
04:13AM 72.1515 -74.2539 253° West 489 563 43,000  Level FlightAware Transoceanic
04:14AM 72.1107 -74.6772 252° West 489 563 43,000  Level FlightAware Transoceanic
04:15AM 72.0690 -75.0987 252° West 489 563 43,000  Level FlightAware Transoceanic
04:16AM 72.0264 -75.5182 252° West 489 563 43,000  Level FlightAware Transoceanic
04:17AM 71.9829 -75.9358 251° West 489 563 43,000  Level FlightAware Transoceanic
04:18AM 71.9385 -76.3515 251° West 489 563 43,000  Level FlightAware Transoceanic
04:19AM 71.8932 -76.7651 250° West 489 563 43,000  Level FlightAware Transoceanic
04:20AM 71.8471 -77.1768 250° West 489 563 43,000  Level FlightAware Transoceanic
04:21AM 71.8000 -77.5863 250° West 489 563 43,000  Level FlightAware Transoceanic
04:22AM 71.7522 -77.9939 249° West 489 563 43,000  Level FlightAware Transoceanic
04:23AM 71.7034 -78.3993 249° West 489 563 43,000  Level FlightAware Transoceanic
04:24AM 71.6538 -78.8027 248° West 489 563 43,000  Level FlightAware Transoceanic
04:25AM 71.6034 -79.2039 248° West 489 563 43,000  Level FlightAware Transoceanic
04:26AM 71.5521 -79.6031 248° West 489 563 43,000  Level FlightAware Transoceanic
04:27AM 71.4738 -79.8957 230° Southwest  Level Estimated
04:28AM 71.3951 -80.1859 230° Southwest  Level Estimated
04:29AM 71.3159 -80.4738 229° Southwest  Level Estimated
04:30AM 71.2362 -80.7593 229° Southwest  Level Estimated
04:31AM 71.1562 -81.0425 229° Southwest  Level Estimated
04:32AM 71.0757 -81.3233 229° Southwest  Level Estimated
04:33AM 70.9948 -81.6019 228° Southwest  Level Estimated
04:34AM 70.9135 -81.8782 228° Southwest  Level Estimated
04:35AM 70.8318 -82.1522 228° Southwest  Level Estimated
04:36AM 70.7496 -82.4240 228° Southwest  Level Estimated
04:37AM 70.6671 -82.6936 227° Southwest  Level Estimated
04:38AM 70.5842 -82.9609 227° Southwest  Level Estimated
04:39AM 70.5009 -83.2261 227° Southwest  Level Estimated
04:40AM 70.4172 -83.4891 227° Southwest  Level Estimated
04:41AM 70.3332 -83.7499 226° Southwest  Level Estimated
04:42AM 70.2487 -84.0086 226° Southwest  Level Estimated
04:43AM 70.1639 -84.2651 226° Southwest  Level Estimated
04:44AM 70.0788 -84.5196 226° Southwest  Level Estimated
04:45AM 69.9932 -84.7720 225° Southwest  Level Estimated
04:46AM 69.9073 -85.0223 225° Southwest  Level Estimated
04:47AM 69.8211 -85.2706 225° Southwest  Level Estimated
04:48AM 69.7345 -85.5168 225° Southwest  Level Estimated
04:49AM 69.6476 -85.7610 224° Southwest  Level Estimated
04:50AM 69.5604 -86.0033 224° Southwest  Level Estimated
04:51AM 69.4728 -86.2436 224° Southwest  Level Estimated
04:52AM 69.3848 -86.4819 224° Southwest  Level Estimated
04:53AM 69.2966 -86.7182 223° Southwest  Level Estimated
04:54AM 69.2081 -86.9527 223° Southwest  Level Estimated
04:55AM 69.1192 -87.1852 223° Southwest  Level Estimated
04:56AM 69.0300 -87.4159 223° Southwest  Level Estimated
04:57AM 68.9405 -87.6446 223° Southwest  Level Estimated
04:58AM 68.8507 -87.8716 222° Southwest  Level Estimated
04:59AM 68.7606 -88.0967 222° Southwest  Level Estimated
05:00AM 68.6702 -88.3199 222° Southwest  Level Estimated
05:01AM 68.5795 -88.5414 222° Southwest  Level Estimated
05:02AM 68.4885 -88.7611 222° Southwest  Level Estimated
05:03AM 68.3972 -88.9791 221° Southwest  Level Estimated
05:04AM 68.3057 -89.1952 221° Southwest  Level Estimated
05:05AM 68.2139 -89.4097 221° Southwest  Level Estimated
05:06AM 68.1218 -89.6224 221° Southwest  Level Estimated
05:07AM 68.0294 -89.8335 221° Southwest  Level Estimated
05:08AM 67.9368 -90.0428 220° Southwest  Level Estimated
05:09AM 67.8439 -90.2505 220° Southwest  Level Estimated
05:10AM 67.7507 -90.4566 220° Southwest  Level Estimated
05:11AM 67.6573 -90.6609 220° Southwest  Level Estimated
05:12AM 67.5636 -90.8637 220° Southwest  Level Estimated
05:13AM 67.4697 -91.0649 219° Southwest  Level Estimated
05:14AM 67.3755 -91.2645 219° Southwest  Level Estimated
05:15AM 67.2811 -91.4626 219° Southwest  Level Estimated
05:16AM 67.1865 -91.6590 219° Southwest  Level Estimated
05:17AM 67.0916 -91.8540 219° Southwest  Level Estimated
05:18AM 66.9965 -92.0474 219° Southwest  Level Estimated
05:19AM 66.9011 -92.2393 218° Southwest  Level Estimated
05:20AM 66.8055 -92.4297 218° Southwest  Level Estimated
05:21AM 66.7097 -92.6186 218° Southwest  Level Estimated
05:22AM 66.6136 -92.8061 218° Southwest  Level Estimated
05:23AM 66.5174 -92.9921 218° Southwest  Level Estimated
05:24AM 66.4209 -93.1767 217° Southwest  Level Estimated
05:25AM 66.3242 -93.3599 217° Southwest  Level Estimated
05:26AM 66.2272 -93.5416 217° Southwest  Level Estimated
05:27AM 66.1301 -93.7220 217° Southwest  Level Estimated
05:28AM 66.0328 -93.9010 217° Southwest  Level Estimated
05:29AM 65.9352 -94.0786 217° Southwest  Level Estimated
05:30AM 65.8375 -94.2549 216° Southwest  Level Estimated
05:31AM 65.7395 -94.4298 216° Southwest  Level Estimated
05:32AM 65.6414 -94.6034 216° Southwest  Level Estimated
05:33AM 65.5431 -94.7757 216° Southwest  Level Estimated
05:34AM 65.4445 -94.9467 216° Southwest  Level Estimated
05:35AM 65.3458 -95.1164 216° Southwest  Level Estimated
05:36AM 65.2469 -95.2849 216° Southwest  Level Estimated
05:37AM 65.1478 -95.4521 215° Southwest  Level Estimated
05:38AM 65.0485 -95.6180 215° Southwest  Level Estimated
05:39AM 64.9490 -95.7827 215° Southwest  Level Estimated
05:40AM 64.8493 -95.9462 215° Southwest  Level Estimated
05:41AM 64.7495 -96.1085 215° Southwest  Level Estimated
05:42AM 64.6495 -96.2696 215° Southwest  Level Estimated
05:43AM 64.5493 -96.4295 214° Southwest  Level Estimated
05:44AM 64.4490 -96.5882 214° Southwest  Level Estimated
05:45AM 64.3485 -96.7458 214° Southwest  Level Estimated
05:46AM 64.2478 -96.9022 214° Southwest  Level Estimated
05:47AM 64.1469 -97.0575 214° Southwest  Level Estimated
05:48AM 64.0459 -97.2117 214° Southwest  Level Estimated
05:49AM 63.9447 -97.3647 214° Southwest  Level Estimated
05:50AM 63.8434 -97.5166 213° Southwest  Level Estimated
05:51AM 63.7419 -97.6674 213° Southwest  Level Estimated
05:52AM 63.6403 -97.8172 213° Southwest  Level Estimated
05:53AM 63.5385 -97.9659 213° Southwest  Level Estimated
05:54AM 63.4366 -98.1135 213° Southwest  Level Estimated
05:55AM 63.3345 -98.2600 213° Southwest  Level Estimated
05:56AM 63.2322 -98.4056 213° Southwest  Level Estimated
05:56AM 63.0000 -103.0167 212° Southwest 480 552 45,000  Level Edmonton Center
05:57AM 63.1298 -98.5501 213° Southwest  Level Estimated
05:57AM 62.9000 -103.2000 220° Southwest 480 552 45,000  Level Edmonton Center
05:58AM 63.0273 -98.6936 212° Southwest  Level Estimated
05:58AM 62.7833 -103.4000 218° Southwest 480 552 45,000  Level Edmonton Center
05:59AM 62.9246 -98.8361 212° Southwest  Level Estimated
05:59AM 62.6833 -103.5833 220° Southwest 480 552 45,000  Level Edmonton Center
06:00AM 62.8218 -98.9775 212° Southwest  Level Estimated
06:00AM 62.5833 -103.7333 215° Southwest 480 552 45,000  Level Edmonton Center
06:01AM 62.7188 -99.1180 212° Southwest  Level Estimated
06:01AM 62.4833 -103.9333 223° Southwest 480 552 45,000  Level Edmonton Center
06:02AM 62.3667 -104.1167 216° Southwest 480 552 45,000  Level Edmonton Center
06:03AM 62.2667 -104.3000 221° Southwest 480 552 45,000  Level Edmonton Center
06:04AM 62.1667 -104.4833 221° Southwest 480 552 45,000  Level Edmonton Center
06:05AM 62.0667 -104.6667 221° Southwest 480 552 45,000  Level Edmonton Center
06:06AM 61.9667 -104.8500 221° Southwest 480 552 45,000  Level Edmonton Center
06:07AM 61.8333 -105.0333 213° Southwest 470 541 45,000  Level Edmonton Center
06:08AM 61.7333 -105.2000 218° Southwest 470 541 45,000  Level Edmonton Center
06:09AM 61.6333 -105.3833 221° Southwest 470 541 45,000  Level Edmonton Center
06:10AM 61.5167 -105.5667 217° Southwest 470 541 45,000  Level Edmonton Center
06:11AM 61.4167 -105.7333 219° Southwest 470 541 45,000  Level Edmonton Center
06:12AM 61.3167 -105.8833 216° Southwest 470 541 45,000  Level Edmonton Center
06:13AM 61.2167 -106.0500 219° Southwest 470 541 45,000  Level Edmonton Center
06:14AM 61.1000 -106.2167 215° Southwest 470 541 45,000  Level Edmonton Center
06:15AM 61.0000 -106.4000 222° Southwest 470 541 45,000  Level Edmonton Center
06:16AM 60.9000 -106.5667 219° Southwest 470 541 45,000  Level Edmonton Center
06:17AM 60.8000 -106.7333 219° Southwest 470 541 45,000  Level Edmonton Center
06:18AM 60.6667 -106.8667 206° Southwest 470 541 45,000  Level Edmonton Center
06:19AM 60.5667 -107.0333 219° Southwest 470 541 45,000  Level Edmonton Center
06:20AM 60.4667 -107.2000 219° Southwest 470 541 45,000  Level Edmonton Center
06:21AM 60.3667 -107.3667 220° Southwest 470 541 45,000  Level Edmonton Center
06:22AM 60.2333 -107.5167 209° Southwest 470 541 45,000  Level Edmonton Center
06:23AM 60.1333 -107.6833 220° Southwest 460 529 45,000  Level Edmonton Center
06:24AM 60.0333 -107.8500 220° Southwest 470 541 45,000  Level Edmonton Center
06:25AM 59.9167 -107.9667 207° Southwest 470 541 45,000  Level Edmonton Center
06:26AM 59.8167 -108.1333 220° Southwest 470 541 45,000  Level Edmonton Center
06:27AM 59.7167 -108.2833 217° Southwest 470 541 45,000  Level Edmonton Center
06:28AM 59.6000 -108.4500 216° Southwest 460 529 45,000  Level Edmonton Center
06:29AM 59.5000 -108.5667 211° Southwest 470 541 45,000  Level Edmonton Center
06:30AM 59.3833 -108.6833 207° Southwest 470 541 45,000  Level Edmonton Center
06:31AM 59.2500 -108.8167 207° Southwest 470 541 45,000  Level Edmonton Center
06:32AM 59.1333 -108.9333 207° Southwest 470 541 45,000  Level Edmonton Center
06:33AM 59.0167 -109.0500 207° Southwest 470 541 45,000  Level Edmonton Center
06:34AM 58.8833 -109.1667 204° Southwest 470 541 45,000  Level Edmonton Center
06:35AM 58.7667 -109.2500 200° South 470 541 45,000  Level Edmonton Center
06:36AM 58.6667 -109.3667 211° Southwest 470 541 45,000  Level Edmonton Center
06:37AM 58.5333 -109.4833 205° Southwest 470 541 45,000  Level Edmonton Center
06:38AM 58.4167 -109.6000 208° Southwest 470 541 45,000  Level Edmonton Center
06:39AM 58.3000 -109.7000 204° Southwest 470 541 45,000  Level Edmonton Center
06:40AM 58.1667 -109.8167 205° Southwest 470 541 45,000  Level Edmonton Center
06:41AM 58.0500 -109.9333 208° Southwest 480 552 45,000  Level Edmonton Center
06:42AM 57.9333 -110.0167 201° Southwest 480 552 45,000  Level Edmonton Center
06:43AM 57.8167 -110.1167 205° Southwest 480 552 45,000  Level Edmonton Center
06:44AM 57.7000 -110.2333 208° Southwest 470 541 45,000  Level Edmonton Center
06:45AM 57.5667 -110.3500 205° Southwest 470 541 45,000  Level Edmonton Center
06:46AM 57.4500 -110.4500 205° Southwest 470 541 45,000  Level Edmonton Center
06:47AM 57.3333 -110.5667 208° Southwest 470 541 45,000  Level Edmonton Center
06:48AM 57.2167 -110.6667 205° Southwest 470 541 45,000  Level Edmonton Center
06:49AM 57.1000 -110.7333 197° South 470 541 45,000  Level Edmonton Center
06:50AM 56.9667 -110.8500 206° Southwest 470 541 45,000  Level Edmonton Center
06:51AM 56.8500 -110.9500 205° Southwest 470 541 45,000  Level Edmonton Center
06:52AM 56.7333 -111.0500 205° Southwest 470 541 45,000  Level Edmonton Center
06:53AM 56.6167 -111.1667 209° Southwest 460 529 45,000  Level Edmonton Center
06:54AM 56.4833 -111.2667 203° Southwest 460 529 45,000  Level Edmonton Center
06:55AM 56.3667 -111.3667 205° Southwest 480 552 45,000  Level Edmonton Center
06:56AM 56.2333 -111.4667 203° Southwest 480 552 45,000  Level Edmonton Center
06:57AM 56.1333 -111.5667 209° Southwest 460 529 45,000  Level Edmonton Center
06:58AM 56.0000 -111.6667 203° Southwest 450 518 45,000  Level Edmonton Center
06:59AM 55.9000 -111.7667 209° Southwest 460 529 45,000  Level Edmonton Center
07:00AM 55.7833 -111.8667 206° Southwest 460 529 45,000  Level Edmonton Center
07:01AM 55.6667 -111.9500 202° Southwest 460 529 45,000  Level Edmonton Center
07:02AM 55.5667 -112.0500 209° Southwest 460 529 45,000  Level Edmonton Center
07:03AM 55.4333 -112.1333 200° South 460 529 45,000  Level Edmonton Center
07:04AM 55.3167 -112.2333 206° Southwest 460 529 45,000  Level Edmonton Center
07:05AM 55.2000 -112.3333 206° Southwest 460 529 45,000 60 Level Edmonton Center
07:06AM 55.0833 -112.4333 206° Southwest 460 529 45,200 480 Climbing Edmonton Center
07:07AM 54.9500 -112.5333 203° Southwest 460 529 46,000 780 Climbing Edmonton Center
07:08AM 54.8500 -112.6167 206° Southwest 450 518 46,800 480 Climbing Edmonton Center
07:09AM 54.7333 -112.7167 206° Southwest 440 506 47,000 60 Climbing Edmonton Center
07:10AM 54.6167 -112.7833 198° South 460 529 47,000  Level Edmonton Center
07:11AM 54.4833 -112.9000 207° Southwest 460 529 47,000  Level Edmonton Center
07:12AM 54.3833 -112.9667 201° Southwest 460 529 47,000  Level Edmonton Center
07:13AM 54.2500 -113.0833 207° Southwest 460 529 47,000  Level Edmonton Center
07:14AM 54.1500 -113.1500 201° Southwest 460 529 47,000  Level Edmonton Center
07:15AM 54.0167 -113.2500 204° Southwest 460 529 47,000  Level Edmonton Center
07:16AM 53.9000 -113.3333 203° Southwest 460 529 47,000  Level Edmonton Center
07:17AM 53.7833 -113.4333 207° Southwest 460 529 47,000  Level Edmonton Center
07:18AM 53.6667 -113.5167 203° Southwest 460 529 47,000  Level Edmonton Center
07:19AM 53.5500 -113.6167 207° Southwest 460 529 47,000  Level Edmonton Center
07:20AM 53.4167 -113.7000 200° South 460 529 47,000  Level Edmonton Center
07:21AM 53.3000 -113.7833 203° Southwest 470 541 47,000  Level Edmonton Center
07:22AM 53.1667 -113.8667 201° Southwest 460 529 47,000  Level Edmonton Center
07:23AM 53.0667 -113.9667 211° Southwest 460 529 47,000  Level Edmonton Center
07:24AM 52.9333 -114.0500 201° Southwest 460 529 47,000  Level Edmonton Center
07:25AM 52.8333 -114.1000 197° South 460 529 47,000  Level Edmonton Center
07:26AM 52.7000 -114.1833 201° Southwest 460 529 47,000  Level Edmonton Center
07:27AM 52.5833 -114.2667 203° Southwest 460 529 47,000  Level Edmonton Center
07:28AM 52.4500 -114.3500 201° Southwest 450 518 47,000  Level Edmonton Center
07:29AM 52.3500 -114.4167 202° Southwest 450 518 47,000  Level Edmonton Center
07:30AM 52.2167 -114.5000 201° Southwest 460 529 47,000  Level Edmonton Center
07:31AM 52.1167 -114.5833 207° Southwest 460 529 47,000  Level Edmonton Center
07:32AM 51.9833 -114.6333 193° South 460 529 47,000  Level Edmonton Center
07:33AM 51.8833 -114.7333 212° Southwest 460 529 47,000  Level Edmonton Center
07:34AM 51.7500 -114.8000 197° South 460 529 47,000  Level Edmonton Center
07:35AM 51.6167 -114.8833 201° Southwest 460 529 47,000  Level Edmonton Center
07:36AM 51.5000 -114.9333 195° South 470 541 47,000  Level Edmonton Center
07:37AM 51.3833 -115.0167 204° Southwest 460 529 47,000  Level Edmonton Center
07:38AM 51.3667 -114.9833 129° Southeast 460 529 47,000  Level Vancouver Center
07:39AM 51.2333 -115.0667 201° Southwest 460 529 47,000  Level Vancouver Center
07:39AM 51.1500 -115.1667 217° Southwest 450 518 47,000  Level Edmonton Center
07:40AM 51.0333 -115.2333 200° South 450 518 47,000  Level Edmonton Center
07:41AM 50.9000 -115.3167 202° Southwest 450 518 47,000  Level Edmonton Center
07:42AM 50.8000 -115.3667 198° South 460 529 47,000  Level Edmonton Center
07:43AM 50.6667 -115.4500 202° Southwest 460 529 47,000  Level Edmonton Center
07:44AM 50.5500 -115.5333 204° Southwest 470 541 47,000  Level Edmonton Center
07:45AM 50.4167 -115.5833 193° South 470 541 47,000  Level Edmonton Center
07:46AM 50.3000 -115.6333 195° South 470 541 47,000  Level Edmonton Center
07:47AM 50.1667 -115.7000 198° South 470 541 47,000  Level Edmonton Center
07:48AM 50.0500 -115.7500 195° South 460 529 47,000  Level Edmonton Center
07:49AM 50.0167 -115.7000 136° Southeast 470 541 47,000  Level Vancouver Center
07:50AM 49.8833 -115.7500 194° South 460 529 47,000  Level Vancouver Center
07:51AM 49.7833 -115.8333 208° Southwest 460 529 47,000  Level Vancouver Center
07:52AM 49.6667 -115.8667 190° South 450 518 47,000  Level Vancouver Center
07:53AM 49.5333 -115.9167 194° South 450 518 47,000  Level Vancouver Center
07:54AM 49.4167 -115.9833 200° South 440 506 47,000  Level Vancouver Center
07:55AM 49.2833 -116.0333 194° South 450 518 47,000  Level Vancouver Center
07:56AM 49.1833 -116.0833 198° South 450 518 47,000  Level Vancouver Center
07:57AM 49.0500 -116.1500 198° South 450 518 47,000  Level Vancouver Center
07:58AM 48.9333 -116.2000 196° South 460 529 47,000  Level Vancouver Center
07:59AM 48.8000 -116.2333 189° South 450 518 47,000  Level Vancouver Center
08:00AM 48.6833 -116.3167 205° Southwest 450 518 47,000  Level Vancouver Center
08:01AM 48.5667 -116.3500 191° South 450 518 47,000  Level Vancouver Center
08:02AM 48.4500 -116.4000 196° South 450 518 47,000  Level Vancouver Center
08:03AM 48.3333 -116.4333 191° South 450 518 47,000  Level Vancouver Center
08:03AM 48.2700 -116.5111 219° Southwest 451 519 47,000  Level Salt Lake Center
08:04AM 48.2222 -116.5331 197° South 451 519 47,000  Level Seattle Center
08:05AM 48.1006 -116.5844 196° South 453 521 47,000  Level Seattle Center
08:06AM 47.9792 -116.6347 195° South 453 521 47,000  Level Seattle Center
08:07AM 47.8561 -116.6853 195° South 456 525 47,000 -60 Level Seattle Center
08:08AM 47.7317 -116.7367 196° South 460 529 46,900  Descending Seattle Center
08:09AM 47.6069 -116.7872 195° South 460 529 47,000  Climbing Seattle Center
08:10AM 47.4797 -116.8397 196° South 464 534 46,900  Descending Seattle Center
08:11AM 47.3528 -116.8911 195° South 466 536 47,000  Climbing Seattle Center
08:12AM 47.2264 -116.9417 195° South 467 537 47,000  Level Seattle Center
08:13AM 47.1031 -116.9933 196° South 461 531 47,000  Level Seattle Center
08:14AM 46.9769 -117.0428 195° South 466 536 47,000  Level Seattle Center
08:15AM 46.8517 -117.0922 195° South 468 539 47,000  Level Seattle Center
08:16AM 46.7261 -117.1431 196° South 469 540 47,000  Level Seattle Center
08:17AM 46.6008 -117.1942 196° South 469 540 47,000  Level Seattle Center
08:18AM 46.4758 -117.2425 195° South 467 537 47,000  Level Seattle Center
08:19AM 46.3531 -117.2900 195° South 460 529 47,000  Level Seattle Center
08:20AM 46.2286 -117.3389 195° South 463 533 47,000  Level Seattle Center
08:21AM 46.1056 -117.3856 195° South 461 531 47,000  Level Seattle Center
08:22AM 45.9814 -117.4333 195° South 462 532 47,000  Level Seattle Center
08:23AM 45.8572 -117.4819 195° South 464 534 47,000  Level Seattle Center
08:24AM 45.7333 -117.5306 195° South 464 534 47,000  Level Seattle Center
08:25AM 45.6044 -117.5778 194° South 460 529 47,000  Level Seattle Center
08:26AM 45.4825 -117.6228 195° South 454 522 47,000  Level Seattle Center
08:27AM 45.3592 -117.6708 195° South 459 528 47,000  Level Seattle Center
08:27AM 45.2647 -117.7064 195° South 455 524 47,000  Level Salt Lake Center
08:28AM 45.1464 -117.7508 195° South 459 528 47,000  Level Salt Lake Center
08:29AM 45.0283 -117.7947 195° South 459 528 47,000  Level Salt Lake Center
08:30AM 44.9131 -117.8353 194° South 451 519 47,000  Level Salt Lake Center
08:31AM 44.7711 -117.8592 187° South 458 527 47,000  Level Salt Lake Center
08:32AM 44.6519 -117.8783 187° South 454 522 47,000  Level Salt Lake Center
08:33AM 44.6100 -117.8847 186° South 457 526 47,000  Level Seattle Center
08:34AM 44.4906 -117.9022 186° South 454 522 47,000  Level Seattle Center
08:35AM 44.3506 -117.9233 186° South 454 522 47,000  Level Seattle Center
08:35AM 44.2683 -117.9358 186° South 462 532 47,000  Level Salt Lake Center
08:37AM 44.1494 -117.9533 186° South 452 520 47,000  Level Salt Lake Center
08:38AM 44.0081 -117.9739 186° South 455 524 47,000  Level Salt Lake Center
08:39AM 43.8886 -117.9922 186° South 454 522 47,000  Level Salt Lake Center
08:40AM 43.7692 -118.0097 186° South 453 521 47,000  Level Salt Lake Center
08:41AM 43.6283 -118.0308 186° South 456 525 47,000  Level Salt Lake Center
08:42AM 43.5078 -118.0481 186° South 456 525 47,000  Level Salt Lake Center
08:43AM 43.3875 -118.0656 186° South 455 524 47,000  Level Salt Lake Center
08:44AM 43.2478 -118.0875 187° South 454 522 47,000  Level Salt Lake Center
08:45AM 43.1272 -118.1036 186° South 455 524 47,000  Level Salt Lake Center
08:46AM 43.0064 -118.1214 186° South 456 525 47,000  Level Salt Lake Center
08:47AM 42.8656 -118.1428 186° South 457 526 47,000  Level Salt Lake Center
08:48AM 42.7453 -118.1589 186° South 455 524 47,000  Level Salt Lake Center
08:49AM 42.6256 -118.1767 186° South 454 522 47,000  Level Salt Lake Center
08:50AM 42.5014 -118.1964 187° South 453 521 47,000  Level Salt Lake Center
08:51AM 42.3597 -118.2167 186° South 455 524 47,000  Level Salt Lake Center
08:52AM 42.2400 -118.2322 185° South 452 520 47,000  Level Salt Lake Center
08:53AM 42.1172 -118.2506 186° South 460 529 47,000  Level Salt Lake Center
08:54AM 41.9753 -118.2697 186° South 461 531 47,000  Level Salt Lake Center
08:55AM 41.8561 -118.2869 186° South 452 520 47,000  Level Salt Lake Center
08:56AM 41.7383 -118.3031 186° South 446 513 47,000  Level Salt Lake Center
08:57AM 41.5992 -118.3231 186° South 450 518 47,000  Level Salt Lake Center
08:58AM 41.4792 -118.3389 186° South 453 521 47,000  Level Salt Lake Center
08:59AM 41.3594 -118.3553 186° South 452 520 47,000  Level Salt Lake Center
09:00AM 41.2186 -118.3753 186° South 455 524 47,000  Level Salt Lake Center
09:01AM 41.1011 -118.3897 185° South 445 512 47,000  Level Salt Lake Center
09:02AM 40.9594 -118.4094 186° South 457 526 47,000  Level Salt Lake Center
09:03AM 40.8392 -118.4269 186° South 456 525 47,000  Level Salt Lake Center
09:04AM 40.7192 -118.4431 186° South 455 524 47,000  Level Salt Lake Center
09:05AM 40.5831 -118.4725 189° South 445 512 47,000  Level Salt Lake Center
09:06AM 40.4669 -118.5047 192° South 445 512 47,000  Level Salt Lake Center
09:07AM 40.3517 -118.5353 191° South 443 510 47,000  Level Salt Lake Center
09:08AM 40.2275 -118.5681 191° South 440 506 47,000  Level Oakland Center
09:09AM 40.1069 -118.6000 191° South 443 510 47,000  Level Oakland Center
09:10AM 39.9867 -118.6303 191° South 441 507 47,000  Level Oakland Center
09:11AM 39.8661 -118.6625 192° South 441 507 47,000  Level Oakland Center
09:12AM 39.7447 -118.6936 191° South 444 511 47,000  Level Oakland Center
09:13AM 39.6233 -118.7247 191° South 445 512 47,000  Level Oakland Center
09:14AM 39.4864 -118.7600 191° South 448 516 47,000  Level Oakland Center
09:15AM 39.3572 -118.7939 191° South 450 518 47,000  Level Oakland Center
09:16AM 39.2342 -118.8244 191° South 449 517 47,000  Level Oakland Center
09:17AM 39.1183 -118.8533 191° South 449 517 47,000  Level Oakland Center
09:18AM 38.9964 -118.8844 191° South 448 516 47,000  Level Oakland Center
09:19AM 38.8761 -118.9133 191° South 440 506 47,100 -180 Climbing Oakland Center
09:20AM 38.7550 -118.9442 191° South 443 510 46,700 -600 Descending Oakland Center
09:21AM 38.6328 -118.9764 192° South 446 513 46,000 -660 Descending Oakland Center
09:22AM 38.5131 -119.0044 190° South 440 506 45,400 -600 Descending Oakland Center
09:23AM 38.3964 -119.0344 191° South 428 493 44,900 -540 Descending Oakland Center
09:24AM 38.2797 -119.0628 191° South 426 490 44,400 -540 Descending Oakland Center
09:25AM 38.1606 -119.0928 191° South 432 497 43,900 -540 Descending Oakland Center
09:26AM 38.0353 -119.1222 190° South 439 505 43,400 -480 Descending Oakland Center
09:27AM 37.9194 -119.1519 191° South 440 506 43,000 -240 Descending Oakland Center
09:28AM 37.8000 -119.1800 191° South 436 502 43,000  Level Oakland Center
09:29AM 37.6814 -119.2094 191° South 434 499 43,000  Level Oakland Center
09:30AM 37.5342 -119.2453 191° South 455 524 43,000  Level Oakland Center
09:31AM 37.4094 -119.2739 190° South 455 524 43,000  Level Oakland Center
09:32AM 37.2881 -119.3047 191° South 447 514 43,000  Level Oakland Center
09:33AM 37.1675 -119.3325 190° South 442 509 43,000  Level Oakland Center
09:34AM 37.0489 -119.3622 191° South 436 502 43,000  Level Oakland Center
09:35AM 36.9300 -119.3903 191° South 434 499 43,000  Level Oakland Center
09:36AM 36.8122 -119.4167 190° South 431 496 43,000  Level Oakland Center
09:37AM 36.6964 -119.4475 192° South 427 491 43,000  Level Oakland Center
09:38AM 36.5786 -119.4750 191° South 429 494 43,000  Level Oakland Center
09:39AM 36.4583 -119.5033 191° South 436 502 43,000  Level Oakland Center
09:40AM 36.3386 -119.5306 190° South 437 503 43,000  Level Oakland Center
09:41AM 36.2194 -119.5589 191° South 436 502 43,000  Level Oakland Center
09:42AM 36.1011 -119.5858 190° South 433 498 43,000  Level Oakland Center
09:43AM 35.9839 -119.6125 190° South 429 494 43,000  Level Oakland Center
09:44AM 35.8636 -119.6197 183° South 428 493 43,000 -300 Level Oakland Center
09:45AM 35.7183 -119.6233 181° South 432 497 42,400 -1,380 Descending Oakland Center
09:46AM 35.5967 -119.6278 182° South 434 499 40,300 -2,040 Descending Oakland Center
09:47AM 35.4769 -119.6331 182° South 431 496 38,300 -2,040 Descending Oakland Center
09:48AM 35.3572 -119.6383 182° South 426 490 36,200 -2,040 Descending Oakland Center
09:49AM 35.2422 -119.6242 174° South 418 481 34,200 -2,100 Descending Oakland Center
09:50AM 35.1375 -119.5408 147° Southeast 446 513 32,000 -2,220 Descending Oakland Center
09:51AM 35.0317 -119.4517 145° Southeast 457 526 29,700 -2,220 Descending Oakland Center
09:52AM 34.9269 -119.3606 144° Southeast 461 531 27,500 -2,100 Descending Oakland Center
09:53AM 34.9050 -119.3428 146° Southeast 464 534 27,100 -2,100 Descending Los Angeles Center
09:54AM 34.8050 -119.2578 145° Southeast 439 505 24,900 -2,100 Descending Los Angeles Center
09:55AM 34.7111 -119.1767 145° Southeast 417 480 22,900 -1,980 Descending Los Angeles Center
09:56AM 34.6111 -119.0964 147° Southeast 427 491 20,900 -2,160 Descending Los Angeles Center
09:57AM 34.4983 -119.0008 145° Southeast 412 474 18,500 -2,100 Descending Los Angeles Center
09:58AM 34.4081 -118.9247 145° Southeast 390 449 16,600 -1,740 Descending Los Angeles Center
10:00AM 34.2167 -118.8333 158° South 313 360 13,000 -1,500 Descending Southern California TRACON
10:01AM 34.1333 -118.8000 162° South 309 356 12,000 -1,080 Descending Southern California TRACON
10:02AM 34.0667 -118.7667 157° South 288 331 11,000 -1,020 Descending Southern California TRACON
10:03AM 34.0308 -118.6933 121° Southeast 292 336 10,000 -1,260 Descending Los Angeles Center
10:04AM 34.0222 -118.5806 95° East 274 315 8,400 -1,500 Descending Los Angeles Center
10:05AM 34.0125 -118.4839 97° East 288 331 7,000 -1,380 Descending Los Angeles Center
10:06AM 34.0183 -118.3925 86° East 280 322 5,600 -1,260 Descending Los Angeles Center
10:07AM 34.0289 -118.3022 82° East 274 315 4,500 -1,140 Descending Los Angeles Center
10:08AM 34.0356 -118.2231 84° East 245 282 3,300 -840 Descending Los Angeles Center
10:09AM 34.0414 -118.1492 85° East 228 262 2,800 -480 Descending Los Angeles Center
10:10AM 34.0333 -118.1167 107° East 199 229 2,600 -180 Descending Southern California TRACON
10:11AM 34.0000 -118.1167 180° South 211 243 2,600  Level Southern California TRACON
10:11AM 33.9822 -118.1353 221° Southwest 202 232 2,600  Level Los Angeles Center
10:12AM 33.9717 -118.2158 261° West 204 235 2,600 -300 Level Los Angeles Center
10:13AM 33.9644 -118.2822 263° West 203 234 2,100 -780 Descending Los Angeles Center
10:14AM 33.9589 -118.3403 263° West 190 219 1,100 -840 Descending Los Angeles Center
10:15AM 33.9550 -118.3839 264° West 155 178 400 -720 Descending Los Angeles Center
10:17AM 33.9333 -118.4000 256° West  Level FlightAware Approximate
10:24AM 33.9425 -118.4081 256° West  Level Estimated
10:25AM 33.9425 -118.4081 256° West  Level Estimated